sensor_id;sensor_type;location;lat;lon;timestamp;P1;durP1;ratioP1;P2;durP2;ratioP2
36301;SDS011;22334;53.022;18.606;2023-03-01T00:00:53;43.43;;;16.80;;
36301;SDS011;22334;53.022;18.606;2023-03-01T00:03:19;42.53;;;17.80;;
36301;SDS011;22334;53.022;18.606;2023-03-01T00:05:45;40.77;;;18.77;;
36301;SDS011;22334;53.022;18.606;2023-03-01T00:08:11;42.17;;;18.67;;
36301;SDS011;22334;53.022;18.606;2023-03-01T00:10:36;42.87;;;18.73;;
36301;SDS011;22334;53.022;18.606;2023-03-01T00:13:02;38.83;;;17.97;;
36301;SDS011;22334;53.022;18.606;2023-03-01T00:15:27;40.50;;;18.10;;
36301;SDS011;22334;53.022;18.606;2023-03-01T00:17:53;38.83;;;17.70;;
36301;SDS011;22334;53.022;18.606;2023-03-01T00:20:18;45.03;;;19.60;;
36301;SDS011;22334;53.022;18.606;2023-03-01T00:22:43;42.80;;;19.33;;
36301;SDS011;22334;53.022;18.606;2023-03-01T00:25:09;39.83;;;18.50;;
36301;SDS011;22334;53.022;18.606;2023-03-01T00:27:34;46.73;;;19.60;;
36301;SDS011;22334;53.022;18.606;2023-03-01T00:30:00;41.53;;;19.53;;
36301;SDS011;22334;53.022;18.606;2023-03-01T00:32:25;39.07;;;16.73;;
36301;SDS011;22334;53.022;18.606;2023-03-01T00:34:51;44.30;;;18.40;;
36301;SDS011;22334;53.022;18.606;2023-03-01T00:37:23;41.63;;;17.77;;
36301;SDS011;22334;53.022;18.606;2023-03-01T00:39:49;46.07;;;18.90;;
36301;SDS011;22334;53.022;18.606;2023-03-01T00:42:15;42.20;;;18.20;;
36301;SDS011;22334;53.022;18.606;2023-03-01T00:44:41;39.80;;;16.47;;
36301;SDS011;22334;53.022;18.606;2023-03-01T00:47:06;35.63;;;16.73;;
36301;SDS011;22334;53.022;18.606;2023-03-01T00:49:32;43.53;;;17.60;;
36301;SDS011;22334;53.022;18.606;2023-03-01T00:51:57;41.03;;;18.30;;
36301;SDS011;22334;53.022;18.606;2023-03-01T00:54:23;42.87;;;18.17;;
36301;SDS011;22334;53.022;18.606;2023-03-01T00:56:48;38.00;;;16.73;;
36301;SDS011;22334;53.022;18.606;2023-03-01T00:59:13;35.90;;;17.27;;
36301;SDS011;22334;53.022;18.606;2023-03-01T01:01:39;37.60;;;17.03;;
36301;SDS011;22334;53.022;18.606;2023-03-01T01:04:09;37.93;;;18.57;;
36301;SDS011;22334;53.022;18.606;2023-03-01T01:06:37;39.40;;;17.73;;
36301;SDS011;22334;53.022;18.606;2023-03-01T01:09:05;44.37;;;17.53;;
36301;SDS011;22334;53.022;18.606;2023-03-01T01:11:32;41.70;;;17.70;;
36301;SDS011;22334;53.022;18.606;2023-03-01T01:13:58;41.07;;;18.03;;
36301;SDS011;22334;53.022;18.606;2023-03-01T01:16:25;40.47;;;18.27;;
36301;SDS011;22334;53.022;18.606;2023-03-01T01:18:51;41.40;;;18.07;;
36301;SDS011;22334;53.022;18.606;2023-03-01T01:21:17;41.90;;;17.87;;
36301;SDS011;22334;53.022;18.606;2023-03-01T01:23:44;45.37;;;18.70;;
36301;SDS011;22334;53.022;18.606;2023-03-01T01:26:11;43.97;;;19.00;;
36301;SDS011;22334;53.022;18.606;2023-03-01T01:28:40;46.80;;;17.93;;
36301;SDS011;22334;53.022;18.606;2023-03-01T01:31:06;41.70;;;17.40;;
36301;SDS011;22334;53.022;18.606;2023-03-01T01:33:31;39.17;;;18.30;;
36301;SDS011;22334;53.022;18.606;2023-03-01T01:35:57;40.20;;;18.10;;
36301;SDS011;22334;53.022;18.606;2023-03-01T01:38:23;45.67;;;18.07;;
36301;SDS011;22334;53.022;18.606;2023-03-01T01:40:49;48.00;;;18.87;;
36301;SDS011;22334;53.022;18.606;2023-03-01T01:43:37;44.60;;;18.50;;
36301;SDS011;22334;53.022;18.606;2023-03-01T01:49:00;41.87;;;18.63;;
36301;SDS011;22334;53.022;18.606;2023-03-01T01:51:28;41.93;;;17.40;;
36301;SDS011;22334;53.022;18.606;2023-03-01T01:54:03;40.57;;;17.20;;
36301;SDS011;22334;53.022;18.606;2023-03-01T01:56:32;34.30;;;17.58;;
36301;SDS011;22334;53.022;18.606;2023-03-01T01:58:57;37.73;;;17.50;;
36301;SDS011;22334;53.022;18.606;2023-03-01T02:01:23;36.90;;;16.17;;
36301;SDS011;22334;53.022;18.606;2023-03-01T02:03:48;41.57;;;16.43;;
36301;SDS011;22334;53.022;18.606;2023-03-01T02:06:34;37.47;;;16.97;;
36301;SDS011;22334;53.022;18.606;2023-03-01T02:09:04;36.43;;;15.90;;
36301;SDS011;22334;53.022;18.606;2023-03-01T02:13:57;32.70;;;16.57;;
36301;SDS011;22334;53.022;18.606;2023-03-01T02:16:23;39.37;;;17.03;;
36301;SDS011;22334;53.022;18.606;2023-03-01T02:18:50;36.90;;;15.57;;
36301;SDS011;22334;53.022;18.606;2023-03-01T02:21:18;35.47;;;15.90;;
36301;SDS011;22334;53.022;18.606;2023-03-01T02:23:52;37.27;;;16.03;;
36301;SDS011;22334;53.022;18.606;2023-03-01T02:28:55;35.67;;;15.83;;
36301;SDS011;22334;53.022;18.606;2023-03-01T02:31:21;37.37;;;15.30;;
36301;SDS011;22334;53.022;18.606;2023-03-01T02:34:05;34.93;;;16.03;;
36301;SDS011;22334;53.022;18.606;2023-03-01T02:36:34;35.33;;;16.00;;
36301;SDS011;22334;53.022;18.606;2023-03-01T02:39:01;35.92;;;15.75;;
36301;SDS011;22334;53.022;18.606;2023-03-01T02:41:30;39.50;;;15.57;;
36301;SDS011;22334;53.022;18.606;2023-03-01T02:43:57;31.77;;;15.07;;
36301;SDS011;22334;53.022;18.606;2023-03-01T02:46:24;38.60;;;16.17;;
36301;SDS011;22334;53.022;18.606;2023-03-01T02:48:51;31.80;;;14.83;;
36301;SDS011;22334;53.022;18.606;2023-03-01T02:54:12;34.47;;;14.53;;
36301;SDS011;22334;53.022;18.606;2023-03-01T02:56:47;38.63;;;15.93;;
36301;SDS011;22334;53.022;18.606;2023-03-01T02:59:13;30.27;;;14.83;;
36301;SDS011;22334;53.022;18.606;2023-03-01T03:01:41;38.33;;;15.63;;
36301;SDS011;22334;53.022;18.606;2023-03-01T03:04:08;32.53;;;16.13;;
36301;SDS011;22334;53.022;18.606;2023-03-01T03:06:35;32.70;;;16.83;;
36301;SDS011;22334;53.022;18.606;2023-03-01T03:09:01;39.23;;;17.13;;
36301;SDS011;22334;53.022;18.606;2023-03-01T03:11:27;32.40;;;16.17;;
36301;SDS011;22334;53.022;18.606;2023-03-01T03:13:53;34.47;;;15.90;;
36301;SDS011;22334;53.022;18.606;2023-03-01T03:16:19;33.37;;;15.57;;
36301;SDS011;22334;53.022;18.606;2023-03-01T03:18:45;44.07;;;17.20;;
36301;SDS011;22334;53.022;18.606;2023-03-01T03:21:13;58.83;;;27.30;;
36301;SDS011;22334;53.022;18.606;2023-03-01T03:23:39;53.42;;;23.80;;
36301;SDS011;22334;53.022;18.606;2023-03-01T03:26:05;57.23;;;23.83;;
36301;SDS011;22334;53.022;18.606;2023-03-01T03:28:31;65.90;;;25.43;;
36301;SDS011;22334;53.022;18.606;2023-03-01T03:30:57;70.30;;;25.23;;
36301;SDS011;22334;53.022;18.606;2023-03-01T03:33:23;55.23;;;22.47;;
36301;SDS011;22334;53.022;18.606;2023-03-01T03:35:49;50.77;;;20.97;;
36301;SDS011;22334;53.022;18.606;2023-03-01T03:38:16;52.17;;;20.53;;
36301;SDS011;22334;53.022;18.606;2023-03-01T03:43:17;40.42;;;18.92;;
36301;SDS011;22334;53.022;18.606;2023-03-01T03:45:45;48.00;;;20.33;;
36301;SDS011;22334;53.022;18.606;2023-03-01T03:48:12;50.07;;;20.03;;
36301;SDS011;22334;53.022;18.606;2023-03-01T03:50:39;61.93;;;21.47;;
36301;SDS011;22334;53.022;18.606;2023-03-01T03:53:06;54.63;;;22.67;;
36301;SDS011;22334;53.022;18.606;2023-03-01T03:55:34;47.77;;;20.43;;
36301;SDS011;22334;53.022;18.606;2023-03-01T03:58:00;43.73;;;18.97;;
36301;SDS011;22334;53.022;18.606;2023-03-01T04:00:27;43.27;;;18.63;;
36301;SDS011;22334;53.022;18.606;2023-03-01T04:02:53;46.70;;;18.97;;
36301;SDS011;22334;53.022;18.606;2023-03-01T04:05:22;44.23;;;21.20;;
36301;SDS011;22334;53.022;18.606;2023-03-01T04:07:48;44.57;;;19.67;;
36301;SDS011;22334;53.022;18.606;2023-03-01T04:10:14;38.27;;;18.47;;
36301;SDS011;22334;53.022;18.606;2023-03-01T04:12:41;39.70;;;18.40;;
36301;SDS011;22334;53.022;18.606;2023-03-01T04:15:08;53.77;;;20.27;;
36301;SDS011;22334;53.022;18.606;2023-03-01T04:17:41;44.10;;;19.10;;
36301;SDS011;22334;53.022;18.606;2023-03-01T04:20:14;50.47;;;22.40;;
36301;SDS011;22334;53.022;18.606;2023-03-01T04:22:50;46.45;;;21.15;;
36301;SDS011;22334;53.022;18.606;2023-03-01T04:25:47;43.80;;;21.20;;
36301;SDS011;22334;53.022;18.606;2023-03-01T04:28:21;49.50;;;21.03;;
36301;SDS011;22334;53.022;18.606;2023-03-01T04:30:49;48.50;;;19.70;;
36301;SDS011;22334;53.022;18.606;2023-03-01T04:33:15;45.17;;;20.57;;
36301;SDS011;22334;53.022;18.606;2023-03-01T04:35:41;44.17;;;20.43;;
36301;SDS011;22334;53.022;18.606;2023-03-01T04:38:07;45.90;;;18.83;;
36301;SDS011;22334;53.022;18.606;2023-03-01T04:40:33;38.33;;;17.93;;
36301;SDS011;22334;53.022;18.606;2023-03-01T04:42:59;38.27;;;18.07;;
36301;SDS011;22334;53.022;18.606;2023-03-01T04:45:24;44.97;;;19.00;;
36301;SDS011;22334;53.022;18.606;2023-03-01T04:47:50;44.83;;;18.60;;
36301;SDS011;22334;53.022;18.606;2023-03-01T04:50:17;47.03;;;19.77;;
36301;SDS011;22334;53.022;18.606;2023-03-01T04:52:45;41.50;;;19.17;;
36301;SDS011;22334;53.022;18.606;2023-03-01T04:55:12;44.20;;;20.07;;
36301;SDS011;22334;53.022;18.606;2023-03-01T04:57:38;40.43;;;17.97;;
36301;SDS011;22334;53.022;18.606;2023-03-01T05:00:04;41.20;;;19.57;;
36301;SDS011;22334;53.022;18.606;2023-03-01T05:02:45;46.43;;;19.57;;
36301;SDS011;22334;53.022;18.606;2023-03-01T05:05:14;40.67;;;19.48;;
36301;SDS011;22334;53.022;18.606;2023-03-01T05:07:40;39.33;;;17.83;;
36301;SDS011;22334;53.022;18.606;2023-03-01T05:10:06;42.70;;;18.80;;
36301;SDS011;22334;53.022;18.606;2023-03-01T05:12:31;44.60;;;20.40;;
36301;SDS011;22334;53.022;18.606;2023-03-01T05:14:57;42.90;;;19.80;;
36301;SDS011;22334;53.022;18.606;2023-03-01T05:17:23;48.10;;;22.20;;
36301;SDS011;22334;53.022;18.606;2023-03-01T05:19:49;50.27;;;20.87;;
36301;SDS011;22334;53.022;18.606;2023-03-01T05:22:15;46.63;;;19.53;;
36301;SDS011;22334;53.022;18.606;2023-03-01T05:24:40;44.30;;;19.57;;
36301;SDS011;22334;53.022;18.606;2023-03-01T05:27:06;46.60;;;20.60;;
36301;SDS011;22334;53.022;18.606;2023-03-01T05:29:31;45.43;;;19.40;;
36301;SDS011;22334;53.022;18.606;2023-03-01T05:32:00;40.20;;;20.17;;
36301;SDS011;22334;53.022;18.606;2023-03-01T05:34:31;45.30;;;22.00;;
36301;SDS011;22334;53.022;18.606;2023-03-01T05:36:58;51.97;;;23.13;;
36301;SDS011;22334;53.022;18.606;2023-03-01T05:39:24;50.83;;;22.57;;
36301;SDS011;22334;53.022;18.606;2023-03-01T05:41:52;49.40;;;21.17;;
36301;SDS011;22334;53.022;18.606;2023-03-01T05:44:18;52.67;;;21.27;;
36301;SDS011;22334;53.022;18.606;2023-03-01T05:46:44;47.30;;;22.37;;
36301;SDS011;22334;53.022;18.606;2023-03-01T05:49:10;50.20;;;22.03;;
36301;SDS011;22334;53.022;18.606;2023-03-01T05:51:38;54.23;;;24.57;;
36301;SDS011;22334;53.022;18.606;2023-03-01T05:54:04;44.00;;;21.63;;
36301;SDS011;22334;53.022;18.606;2023-03-01T05:56:31;40.40;;;19.90;;
36301;SDS011;22334;53.022;18.606;2023-03-01T05:58:58;47.77;;;21.43;;
36301;SDS011;22334;53.022;18.606;2023-03-01T06:03:54;50.43;;;22.87;;
36301;SDS011;22334;53.022;18.606;2023-03-01T06:06:20;48.10;;;23.77;;
36301;SDS011;22334;53.022;18.606;2023-03-01T06:08:46;52.83;;;23.60;;
36301;SDS011;22334;53.022;18.606;2023-03-01T06:11:11;43.90;;;22.63;;
36301;SDS011;22334;53.022;18.606;2023-03-01T06:13:37;40.47;;;21.03;;
36301;SDS011;22334;53.022;18.606;2023-03-01T06:38:17;41.83;;;20.83;;
36301;SDS011;22334;53.022;18.606;2023-03-01T06:54:05;42.10;;;20.50;;
36301;SDS011;22334;53.022;18.606;2023-03-01T06:56:33;39.85;;;19.08;;
36301;SDS011;22334;53.022;18.606;2023-03-01T06:59:31;44.97;;;20.30;;
36301;SDS011;22334;53.022;18.606;2023-03-01T07:02:23;44.40;;;21.35;;
36301;SDS011;22334;53.022;18.606;2023-03-01T07:05:21;44.75;;;19.30;;
36301;SDS011;22334;53.022;18.606;2023-03-01T07:07:49;39.50;;;20.13;;
36301;SDS011;22334;53.022;18.606;2023-03-01T07:44:31;41.67;;;19.92;;
36301;SDS011;22334;53.022;18.606;2023-03-01T07:47:54;34.30;;;16.30;;
36301;SDS011;22334;53.022;18.606;2023-03-01T08:05:20;28.15;;;12.25;;
36301;SDS011;22334;53.022;18.606;2023-03-01T08:07:48;30.10;;;11.10;;
36301;SDS011;22334;53.022;18.606;2023-03-01T08:10:14;23.33;;;11.60;;
36301;SDS011;22334;53.022;18.606;2023-03-01T08:12:40;22.67;;;9.68;;
36301;SDS011;22334;53.022;18.606;2023-03-01T08:15:08;25.10;;;9.88;;
36301;SDS011;22334;53.022;18.606;2023-03-01T08:17:34;28.27;;;10.38;;
36301;SDS011;22334;53.022;18.606;2023-03-01T08:20:00;23.10;;;10.57;;
36301;SDS011;22334;53.022;18.606;2023-03-01T08:22:25;22.55;;;10.10;;
36301;SDS011;22334;53.022;18.606;2023-03-01T08:24:50;22.05;;;9.90;;
36301;SDS011;22334;53.022;18.606;2023-03-01T08:27:16;22.20;;;10.38;;
36301;SDS011;22334;53.022;18.606;2023-03-01T08:29:42;20.10;;;10.07;;
36301;SDS011;22334;53.022;18.606;2023-03-01T08:32:08;27.95;;;12.35;;
36301;SDS011;22334;53.022;18.606;2023-03-01T08:34:37;23.77;;;10.43;;
36301;SDS011;22334;53.022;18.606;2023-03-01T08:37:05;23.42;;;11.20;;
36301;SDS011;22334;53.022;18.606;2023-03-01T08:39:30;20.52;;;10.95;;
36301;SDS011;22334;53.022;18.606;2023-03-01T08:41:56;26.77;;;11.43;;
36301;SDS011;22334;53.022;18.606;2023-03-01T08:44:22;25.17;;;11.13;;
36301;SDS011;22334;53.022;18.606;2023-03-01T08:46:48;27.65;;;12.38;;
36301;SDS011;22334;53.022;18.606;2023-03-01T08:49:18;26.77;;;10.02;;
36301;SDS011;22334;53.022;18.606;2023-03-01T08:51:47;31.45;;;12.85;;
36301;SDS011;22334;53.022;18.606;2023-03-01T08:54:16;20.90;;;11.00;;
36301;SDS011;22334;53.022;18.606;2023-03-01T08:56:45;27.05;;;11.75;;
36301;SDS011;22334;53.022;18.606;2023-03-01T08:59:12;22.60;;;11.45;;
36301;SDS011;22334;53.022;18.606;2023-03-01T09:01:38;29.40;;;12.13;;
36301;SDS011;22334;53.022;18.606;2023-03-01T09:04:12;32.25;;;16.15;;
36301;SDS011;22334;53.022;18.606;2023-03-01T09:06:38;25.58;;;13.10;;
36301;SDS011;22334;53.022;18.606;2023-03-01T09:09:04;27.70;;;12.90;;
36301;SDS011;22334;53.022;18.606;2023-03-01T09:11:30;29.88;;;13.13;;
36301;SDS011;22334;53.022;18.606;2023-03-01T09:13:56;26.90;;;12.45;;
36301;SDS011;22334;53.022;18.606;2023-03-01T09:16:22;24.75;;;12.75;;
36301;SDS011;22334;53.022;18.606;2023-03-01T09:18:48;29.88;;;14.32;;
36301;SDS011;22334;53.022;18.606;2023-03-01T09:21:18;28.38;;;15.07;;
36301;SDS011;22334;53.022;18.606;2023-03-01T09:23:48;23.60;;;11.30;;
36301;SDS011;22334;53.022;18.606;2023-03-01T09:29:20;24.00;;;12.40;;
36301;SDS011;22334;53.022;18.606;2023-03-01T09:31:50;28.70;;;13.25;;
36301;SDS011;22334;53.022;18.606;2023-03-01T09:34:16;26.60;;;13.25;;
36301;SDS011;22334;53.022;18.606;2023-03-01T09:36:47;32.35;;;12.85;;
36301;SDS011;22334;53.022;18.606;2023-03-01T09:39:14;22.92;;;13.02;;
36301;SDS011;22334;53.022;18.606;2023-03-01T09:41:59;27.80;;;13.30;;
36301;SDS011;22334;53.022;18.606;2023-03-01T09:44:45;26.48;;;12.57;;
36301;SDS011;22334;53.022;18.606;2023-03-01T09:47:25;25.45;;;12.77;;
36301;SDS011;22334;53.022;18.606;2023-03-01T09:50:15;24.02;;;12.38;;
36301;SDS011;22334;53.022;18.606;2023-03-01T09:58:53;24.75;;;11.90;;
36301;SDS011;22334;53.022;18.606;2023-03-01T10:06:26;27.85;;;11.15;;
36301;SDS011;22334;53.022;18.606;2023-03-01T10:09:09;24.52;;;12.13;;
36301;SDS011;22334;53.022;18.606;2023-03-01T10:11:36;25.60;;;11.65;;
36301;SDS011;22334;53.022;18.606;2023-03-01T10:14:09;24.85;;;11.50;;
36301;SDS011;22334;53.022;18.606;2023-03-01T10:19:32;25.13;;;12.10;;
36301;SDS011;22334;53.022;18.606;2023-03-01T10:22:13;37.70;;;18.95;;
36301;SDS011;22334;53.022;18.606;2023-03-01T10:24:53;30.42;;;14.27;;
36301;SDS011;22334;53.022;18.606;2023-03-01T10:27:23;26.48;;;13.40;;
36301;SDS011;22334;53.022;18.606;2023-03-01T10:30:13;29.95;;;14.25;;
36301;SDS011;22334;53.022;18.606;2023-03-01T10:32:43;28.00;;;14.02;;
36301;SDS011;22334;53.022;18.606;2023-03-01T10:38:05;33.88;;;14.25;;
36301;SDS011;22334;53.022;18.606;2023-03-01T10:40:32;18.65;;;10.18;;
36301;SDS011;22334;53.022;18.606;2023-03-01T10:43:00;23.50;;;12.65;;
36301;SDS011;22334;53.022;18.606;2023-03-01T10:48:32;24.17;;;10.90;;
36301;SDS011;22334;53.022;18.606;2023-03-01T10:58:26;24.30;;;11.48;;
36301;SDS011;22334;53.022;18.606;2023-03-01T11:00:54;19.70;;;10.43;;
36301;SDS011;22334;53.022;18.606;2023-03-01T11:03:33;21.48;;;10.45;;
36301;SDS011;22334;53.022;18.606;2023-03-01T11:08:45;25.52;;;11.30;;
36301;SDS011;22334;53.022;18.606;2023-03-01T11:13:38;23.27;;;9.93;;
36301;SDS011;22334;53.022;18.606;2023-03-01T11:16:16;18.30;;;9.45;;
36301;SDS011;22334;53.022;18.606;2023-03-01T11:24:30;22.95;;;9.65;;
36301;SDS011;22334;53.022;18.606;2023-03-01T11:27:03;17.17;;;8.98;;
36301;SDS011;22334;53.022;18.606;2023-03-01T11:35:28;14.63;;;6.72;;
36301;SDS011;22334;53.022;18.606;2023-03-01T11:41:08;13.90;;;6.57;;
36301;SDS011;22334;53.022;18.606;2023-03-01T11:43:58;17.63;;;10.50;;
36301;SDS011;22334;53.022;18.606;2023-03-01T11:46:49;14.40;;;6.43;;
36301;SDS011;22334;53.022;18.606;2023-03-01T11:55:42;14.57;;;6.60;;
36301;SDS011;22334;53.022;18.606;2023-03-01T12:13:08;13.90;;;6.47;;
36301;SDS011;22334;53.022;18.606;2023-03-01T12:24:16;15.75;;;7.22;;
36301;SDS011;22334;53.022;18.606;2023-03-01T12:31:58;13.25;;;6.70;;
36301;SDS011;22334;53.022;18.606;2023-03-01T12:48:18;15.88;;;8.48;;
36301;SDS011;22334;53.022;18.606;2023-03-01T12:50:53;13.40;;;7.43;;
36301;SDS011;22334;53.022;18.606;2023-03-01T12:53:22;14.48;;;6.88;;
36301;SDS011;22334;53.022;18.606;2023-03-01T12:55:52;14.63;;;6.75;;
36301;SDS011;22334;53.022;18.606;2023-03-01T13:03:56;13.23;;;6.40;;
36301;SDS011;22334;53.022;18.606;2023-03-01T13:07:44;15.70;;;7.32;;
36301;SDS011;22334;53.022;18.606;2023-03-01T13:20:20;11.18;;;5.63;;
36301;SDS011;22334;53.022;18.606;2023-03-01T13:22:48;15.65;;;7.13;;
36301;SDS011;22334;53.022;18.606;2023-03-01T13:25:26;14.10;;;7.13;;
36301;SDS011;22334;53.022;18.606;2023-03-01T13:27:51;12.30;;;6.00;;
36301;SDS011;22334;53.022;18.606;2023-03-01T13:30:55;10.05;;;5.88;;
36301;SDS011;22334;53.022;18.606;2023-03-01T13:35:48;13.27;;;6.85;;
36301;SDS011;22334;53.022;18.606;2023-03-01T13:41:16;12.95;;;5.82;;
36301;SDS011;22334;53.022;18.606;2023-03-01T13:46:21;11.88;;;5.22;;
36301;SDS011;22334;53.022;18.606;2023-03-01T13:48:49;11.80;;;5.20;;
36301;SDS011;22334;53.022;18.606;2023-03-01T13:51:15;10.23;;;5.20;;
36301;SDS011;22334;53.022;18.606;2023-03-01T13:53:46;14.52;;;5.20;;
36301;SDS011;22334;53.022;18.606;2023-03-01T13:56:14;14.25;;;6.85;;
36301;SDS011;22334;53.022;18.606;2023-03-01T13:59:27;10.07;;;6.18;;
36301;SDS011;22334;53.022;18.606;2023-03-01T14:01:33;12.25;;;6.65;;
36301;SDS011;22334;53.022;18.606;2023-03-01T14:04:00;12.50;;;6.85;;
36301;SDS011;22334;53.022;18.606;2023-03-01T14:06:30;14.75;;;7.15;;
36301;SDS011;22334;53.022;18.606;2023-03-01T14:09:02;15.55;;;8.32;;
36301;SDS011;22334;53.022;18.606;2023-03-01T14:11:50;15.70;;;7.60;;
36301;SDS011;22334;53.022;18.606;2023-03-01T14:19:56;25.98;;;8.02;;
36301;SDS011;22334;53.022;18.606;2023-03-01T14:22:34;13.85;;;6.55;;
36301;SDS011;22334;53.022;18.606;2023-03-01T14:25:18;11.05;;;6.28;;
36301;SDS011;22334;53.022;18.606;2023-03-01T14:27:50;15.50;;;7.13;;
36301;SDS011;22334;53.022;18.606;2023-03-01T14:30:25;11.65;;;6.80;;
36301;SDS011;22334;53.022;18.606;2023-03-01T14:33:06;15.63;;;7.15;;
36301;SDS011;22334;53.022;18.606;2023-03-01T14:35:51;18.20;;;7.68;;
36301;SDS011;22334;53.022;18.606;2023-03-01T14:38:23;14.98;;;7.78;;
36301;SDS011;22334;53.022;18.606;2023-03-01T14:41:45;16.25;;;7.10;;
36301;SDS011;22334;53.022;18.606;2023-03-01T14:44:15;15.07;;;7.32;;
36301;SDS011;22334;53.022;18.606;2023-03-01T14:46:51;19.08;;;7.78;;
36301;SDS011;22334;53.022;18.606;2023-03-01T14:49:23;15.05;;;6.50;;
36301;SDS011;22334;53.022;18.606;2023-03-01T14:51:59;14.57;;;7.78;;
36301;SDS011;22334;53.022;18.606;2023-03-01T14:54:40;13.15;;;6.95;;
36301;SDS011;22334;53.022;18.606;2023-03-01T14:57:36;14.05;;;6.35;;
36301;SDS011;22334;53.022;18.606;2023-03-01T15:01:02;13.63;;;7.68;;
36301;SDS011;22334;53.022;18.606;2023-03-01T15:04:31;26.98;;;9.48;;
36301;SDS011;22334;53.022;18.606;2023-03-01T15:07:36;16.58;;;7.63;;
36301;SDS011;22334;53.022;18.606;2023-03-01T15:10:05;16.67;;;8.10;;
36301;SDS011;22334;53.022;18.606;2023-03-01T15:12:39;16.85;;;7.53;;
36301;SDS011;22334;53.022;18.606;2023-03-01T15:17:55;19.13;;;8.35;;
36301;SDS011;22334;53.022;18.606;2023-03-01T15:20:23;16.77;;;7.38;;
36301;SDS011;22334;53.022;18.606;2023-03-01T15:22:55;18.10;;;7.80;;
36301;SDS011;22334;53.022;18.606;2023-03-01T15:25:26;16.45;;;8.57;;
36301;SDS011;22334;53.022;18.606;2023-03-01T15:27:53;18.27;;;9.25;;
36301;SDS011;22334;53.022;18.606;2023-03-01T15:30:23;22.05;;;10.63;;
36301;SDS011;22334;53.022;18.606;2023-03-01T15:39:04;23.95;;;8.70;;
36301;SDS011;22334;53.022;18.606;2023-03-01T15:47:54;21.50;;;8.45;;
36301;SDS011;22334;53.022;18.606;2023-03-01T15:50:32;20.38;;;9.57;;
36301;SDS011;22334;53.022;18.606;2023-03-01T15:52:59;20.20;;;8.60;;
36301;SDS011;22334;53.022;18.606;2023-03-01T15:55:27;14.63;;;7.88;;
36301;SDS011;22334;53.022;18.606;2023-03-01T15:58:03;20.70;;;7.60;;
36301;SDS011;22334;53.022;18.606;2023-03-01T16:00:31;13.60;;;7.50;;
36301;SDS011;22334;53.022;18.606;2023-03-01T16:02:58;19.33;;;9.98;;
36301;SDS011;22334;53.022;18.606;2023-03-01T16:05:25;17.80;;;9.43;;
36301;SDS011;22334;53.022;18.606;2023-03-01T16:07:55;20.65;;;8.77;;
36301;SDS011;22334;53.022;18.606;2023-03-01T16:10:21;14.80;;;7.47;;
36301;SDS011;22334;53.022;18.606;2023-03-01T16:12:47;21.30;;;9.00;;
36301;SDS011;22334;53.022;18.606;2023-03-01T16:17:45;19.52;;;9.65;;
36301;SDS011;22334;53.022;18.606;2023-03-01T16:20:11;18.25;;;9.00;;
36301;SDS011;22334;53.022;18.606;2023-03-01T16:22:40;23.27;;;9.60;;
36301;SDS011;22334;53.022;18.606;2023-03-01T16:25:14;20.92;;;9.75;;
36301;SDS011;22334;53.022;18.606;2023-03-01T16:27:46;16.08;;;9.02;;
36301;SDS011;22334;53.022;18.606;2023-03-01T16:30:14;23.40;;;10.30;;
36301;SDS011;22334;53.022;18.606;2023-03-01T16:32:46;30.13;;;13.40;;
36301;SDS011;22334;53.022;18.606;2023-03-01T16:35:31;29.42;;;12.88;;
36301;SDS011;22334;53.022;18.606;2023-03-01T16:38:10;37.72;;;15.73;;
36301;SDS011;22334;53.022;18.606;2023-03-01T16:40:39;35.85;;;16.85;;
36301;SDS011;22334;53.022;18.606;2023-03-01T16:44:04;34.70;;;15.50;;
36301;SDS011;22334;53.022;18.606;2023-03-01T16:46:32;36.78;;;16.13;;
36301;SDS011;22334;53.022;18.606;2023-03-01T16:49:02;34.03;;;15.52;;
36301;SDS011;22334;53.022;18.606;2023-03-01T16:51:30;38.65;;;16.58;;
36301;SDS011;22334;53.022;18.606;2023-03-01T16:54:00;36.47;;;16.65;;
36301;SDS011;22334;53.022;18.606;2023-03-01T16:56:27;40.38;;;16.70;;
36301;SDS011;22334;53.022;18.606;2023-03-01T17:00:11;41.40;;;17.73;;
36301;SDS011;22334;53.022;18.606;2023-03-01T17:02:53;33.63;;;15.85;;
36301;SDS011;22334;53.022;18.606;2023-03-01T17:05:19;39.90;;;17.00;;
36301;SDS011;22334;53.022;18.606;2023-03-01T17:07:46;32.75;;;16.05;;
36301;SDS011;22334;53.022;18.606;2023-03-01T17:10:11;36.50;;;16.67;;
36301;SDS011;22334;53.022;18.606;2023-03-01T17:12:37;41.15;;;15.68;;
36301;SDS011;22334;53.022;18.606;2023-03-01T17:15:03;39.50;;;17.58;;
36301;SDS011;22334;53.022;18.606;2023-03-01T17:17:30;40.63;;;18.58;;
36301;SDS011;22334;53.022;18.606;2023-03-01T17:19:55;38.47;;;17.33;;
36301;SDS011;22334;53.022;18.606;2023-03-01T17:22:30;48.17;;;19.92;;
36301;SDS011;22334;53.022;18.606;2023-03-01T17:27:51;98.45;;;43.35;;
36301;SDS011;22334;53.022;18.606;2023-03-01T17:30:18;87.00;;;38.97;;
36301;SDS011;22334;53.022;18.606;2023-03-01T17:32:43;79.65;;;36.05;;
36301;SDS011;22334;53.022;18.606;2023-03-01T17:35:09;84.80;;;39.33;;
36301;SDS011;22334;53.022;18.606;2023-03-01T17:37:36;78.63;;;37.60;;
36301;SDS011;22334;53.022;18.606;2023-03-01T17:40:03;74.47;;;35.83;;
36301;SDS011;22334;53.022;18.606;2023-03-01T17:42:30;93.72;;;38.95;;
36301;SDS011;22334;53.022;18.606;2023-03-01T17:45:02;87.75;;;41.67;;
36301;SDS011;22334;53.022;18.606;2023-03-01T17:47:30;89.45;;;44.17;;
36301;SDS011;22334;53.022;18.606;2023-03-01T17:49:55;88.53;;;40.40;;
36301;SDS011;22334;53.022;18.606;2023-03-01T17:52:28;100.93;;;44.97;;
36301;SDS011;22334;53.022;18.606;2023-03-01T17:54:58;129.30;;;55.63;;
36301;SDS011;22334;53.022;18.606;2023-03-01T17:58:10;99.07;;;44.80;;
36301;SDS011;22334;53.022;18.606;2023-03-01T18:00:41;107.60;;;46.95;;
36301;SDS011;22334;53.022;18.606;2023-03-01T18:03:07;105.28;;;46.22;;
36301;SDS011;22334;53.022;18.606;2023-03-01T18:05:33;107.75;;;47.53;;
36301;SDS011;22334;53.022;18.606;2023-03-01T18:08:00;86.28;;;40.42;;
36301;SDS011;22334;53.022;18.606;2023-03-01T18:10:26;76.68;;;35.72;;
36301;SDS011;22334;53.022;18.606;2023-03-01T18:12:52;80.45;;;36.38;;
36301;SDS011;22334;53.022;18.606;2023-03-01T18:15:21;88.95;;;38.42;;
36301;SDS011;22334;53.022;18.606;2023-03-01T18:17:55;85.32;;;41.60;;
36301;SDS011;22334;53.022;18.606;2023-03-01T18:20:23;87.60;;;40.45;;
36301;SDS011;22334;53.022;18.606;2023-03-01T18:22:49;80.72;;;38.38;;
36301;SDS011;22334;53.022;18.606;2023-03-01T18:25:21;88.75;;;39.92;;
36301;SDS011;22334;53.022;18.606;2023-03-01T18:27:46;91.53;;;39.75;;
36301;SDS011;22334;53.022;18.606;2023-03-01T18:30:14;86.88;;;40.67;;
36301;SDS011;22334;53.022;18.606;2023-03-01T18:32:40;77.60;;;41.10;;
36301;SDS011;22334;53.022;18.606;2023-03-01T18:35:07;108.65;;;52.38;;
36301;SDS011;22334;53.022;18.606;2023-03-01T18:37:33;98.95;;;48.75;;
36301;SDS011;22334;53.022;18.606;2023-03-01T18:39:59;120.90;;;58.60;;
36301;SDS011;22334;53.022;18.606;2023-03-01T18:42:25;220.95;;;110.20;;